sensor_id;sensor_type;location;lat;lon;timestamp;P1;durP1;ratioP1;P2;durP2;ratioP2
13445;SDS011;6795;51.232;3.764;2024-02-15T00:01:34;12.93;;;4.47;;
13445;SDS011;6795;51.232;3.764;2024-02-15T00:04:54;15.85;;;4.70;;
13445;SDS011;6795;51.232;3.764;2024-02-15T00:08:14;11.73;;;4.45;;
13445;SDS011;6795;51.232;3.764;2024-02-15T00:11:42;12.05;;;3.88;;
13445;SDS011;6795;51.232;3.764;2024-02-15T00:18:48;11.77;;;3.80;;
13445;SDS011;6795;51.232;3.764;2024-02-15T00:21:52;9.93;;;3.35;;
13445;SDS011;6795;51.232;3.764;2024-02-15T00:25:07;12.27;;;3.85;;
13445;SDS011;6795;51.232;3.764;2024-02-15T00:28:15;8.85;;;3.63;;
13445;SDS011;6795;51.232;3.764;2024-02-15T00:31:37;16.38;;;4.32;;
13445;SDS011;6795;51.232;3.764;2024-02-15T00:34:57;7.75;;;2.65;;
13445;SDS011;6795;51.232;3.764;2024-02-15T00:38:20;10.15;;;3.22;;
13445;SDS011;6795;51.232;3.764;2024-02-15T00:41:25;7.18;;;3.25;;
13445;SDS011;6795;51.232;3.764;2024-02-15T00:44:57;12.30;;;3.42;;
13445;SDS011;6795;51.232;3.764;2024-02-15T00:48:39;13.48;;;3.22;;
13445;SDS011;6795;51.232;3.764;2024-02-15T00:55:43;15.60;;;3.70;;
13445;SDS011;6795;51.232;3.764;2024-02-15T00:59:47;6.72;;;2.63;;
13445;SDS011;6795;51.232;3.764;2024-02-15T01:03:01;7.75;;;2.55;;
13445;SDS011;6795;51.232;3.764;2024-02-15T01:06:19;7.15;;;2.65;;
13445;SDS011;6795;51.232;3.764;2024-02-15T01:10:05;12.45;;;2.42;;
13445;SDS011;6795;51.232;3.764;2024-02-15T01:13:37;13.80;;;2.90;;
13445;SDS011;6795;51.232;3.764;2024-02-15T01:17:03;10.68;;;3.33;;
13445;SDS011;6795;51.232;3.764;2024-02-15T01:19:58;15.60;;;3.30;;
13445;SDS011;6795;51.232;3.764;2024-02-15T01:23:28;7.18;;;2.80;;
13445;SDS011;6795;51.232;3.764;2024-02-15T01:27:01;12.38;;;2.88;;
13445;SDS011;6795;51.232;3.764;2024-02-15T01:30:43;10.48;;;3.13;;
13445;SDS011;6795;51.232;3.764;2024-02-15T01:33:49;11.63;;;2.97;;
13445;SDS011;6795;51.232;3.764;2024-02-15T01:37:08;12.88;;;2.72;;
13445;SDS011;6795;51.232;3.764;2024-02-15T01:40:20;10.98;;;3.20;;
13445;SDS011;6795;51.232;3.764;2024-02-15T01:47:44;9.00;;;3.10;;
13445;SDS011;6795;51.232;3.764;2024-02-15T01:50:55;6.82;;;2.90;;
13445;SDS011;6795;51.232;3.764;2024-02-15T01:53:49;10.43;;;3.60;;
13445;SDS011;6795;51.232;3.764;2024-02-15T01:57:01;8.20;;;2.83;;
13445;SDS011;6795;51.232;3.764;2024-02-15T01:59:31;7.95;;;2.92;;
13445;SDS011;6795;51.232;3.764;2024-02-15T02:02:01;9.18;;;3.17;;
13445;SDS011;6795;51.232;3.764;2024-02-15T02:04:31;15.90;;;3.50;;
13445;SDS011;6795;51.232;3.764;2024-02-15T02:07:00;17.50;;;3.65;;
13445;SDS011;6795;51.232;3.764;2024-02-15T02:09:29;8.70;;;2.92;;
13445;SDS011;6795;51.232;3.764;2024-02-15T02:11:57;12.05;;;3.60;;
13445;SDS011;6795;51.232;3.764;2024-02-15T02:14:26;19.08;;;4.88;;
13445;SDS011;6795;51.232;3.764;2024-02-15T02:16:57;11.45;;;3.38;;
13445;SDS011;6795;51.232;3.764;2024-02-15T02:19:38;12.45;;;3.47;;
13445;SDS011;6795;51.232;3.764;2024-02-15T02:22:07;15.48;;;3.55;;
13445;SDS011;6795;51.232;3.764;2024-02-15T02:24:40;9.98;;;3.92;;
13445;SDS011;6795;51.232;3.764;2024-02-15T02:27:22;10.77;;;4.22;;
13445;SDS011;6795;51.232;3.764;2024-02-15T02:29:52;9.45;;;4.65;;
13445;SDS011;6795;51.232;3.764;2024-02-15T02:32:21;11.60;;;4.75;;
13445;SDS011;6795;51.232;3.764;2024-02-15T02:34:50;11.38;;;4.18;;
13445;SDS011;6795;51.232;3.764;2024-02-15T02:37:21;13.27;;;3.47;;
13445;SDS011;6795;51.232;3.764;2024-02-15T02:39:49;13.60;;;3.70;;
13445;SDS011;6795;51.232;3.764;2024-02-15T02:42:19;11.20;;;4.00;;
13445;SDS011;6795;51.232;3.764;2024-02-15T02:44:47;8.27;;;3.47;;
13445;SDS011;6795;51.232;3.764;2024-02-15T02:47:17;8.57;;;3.08;;
13445;SDS011;6795;51.232;3.764;2024-02-15T02:49:45;10.98;;;4.05;;
13445;SDS011;6795;51.232;3.764;2024-02-15T02:52:13;9.50;;;3.55;;
13445;SDS011;6795;51.232;3.764;2024-02-15T02:54:42;8.10;;;3.53;;
13445;SDS011;6795;51.232;3.764;2024-02-15T02:57:10;10.80;;;3.88;;
13445;SDS011;6795;51.232;3.764;2024-02-15T02:59:40;14.80;;;3.70;;
13445;SDS011;6795;51.232;3.764;2024-02-15T03:02:08;6.60;;;3.42;;
13445;SDS011;6795;51.232;3.764;2024-02-15T03:04:37;17.33;;;4.20;;
13445;SDS011;6795;51.232;3.764;2024-02-15T03:07:06;10.20;;;3.90;;
13445;SDS011;6795;51.232;3.764;2024-02-15T03:09:35;21.92;;;3.90;;
13445;SDS011;6795;51.232;3.764;2024-02-15T03:12:04;7.80;;;3.33;;
13445;SDS011;6795;51.232;3.764;2024-02-15T03:14:32;9.23;;;3.63;;
13445;SDS011;6795;51.232;3.764;2024-02-15T03:17:03;9.88;;;3.60;;
13445;SDS011;6795;51.232;3.764;2024-02-15T03:19:32;9.68;;;4.55;;
13445;SDS011;6795;51.232;3.764;2024-02-15T03:22:01;13.68;;;5.15;;
13445;SDS011;6795;51.232;3.764;2024-02-15T03:24:29;8.40;;;2.95;;
13445;SDS011;6795;51.232;3.764;2024-02-15T03:26:58;12.15;;;3.40;;
13445;SDS011;6795;51.232;3.764;2024-02-15T03:29:43;9.45;;;4.03;;
13445;SDS011;6795;51.232;3.764;2024-02-15T03:36:19;10.57;;;4.25;;
13445;SDS011;6795;51.232;3.764;2024-02-15T03:38:48;8.98;;;4.78;;
13445;SDS011;6795;51.232;3.764;2024-02-15T03:41:16;11.77;;;4.85;;
13445;SDS011;6795;51.232;3.764;2024-02-15T03:43:46;9.60;;;4.40;;
13445;SDS011;6795;51.232;3.764;2024-02-15T03:46:19;12.30;;;5.15;;
13445;SDS011;6795;51.232;3.764;2024-02-15T03:48:49;9.05;;;4.03;;
13445;SDS011;6795;51.232;3.764;2024-02-15T03:51:17;12.20;;;4.38;;
13445;SDS011;6795;51.232;3.764;2024-02-15T03:53:47;13.38;;;4.72;;
13445;SDS011;6795;51.232;3.764;2024-02-15T03:56:15;13.05;;;4.50;;
13445;SDS011;6795;51.232;3.764;2024-02-15T03:58:43;10.77;;;4.90;;
13445;SDS011;6795;51.232;3.764;2024-02-15T04:01:16;11.13;;;4.80;;
13445;SDS011;6795;51.232;3.764;2024-02-15T04:03:44;9.80;;;4.93;;
13445;SDS011;6795;51.232;3.764;2024-02-15T04:06:16;13.48;;;4.25;;
13445;SDS011;6795;51.232;3.764;2024-02-15T04:08:44;6.05;;;4.65;;
13445;SDS011;6795;51.232;3.764;2024-02-15T04:11:13;10.63;;;4.90;;
13445;SDS011;6795;51.232;3.764;2024-02-15T04:13:42;11.60;;;4.30;;
13445;SDS011;6795;51.232;3.764;2024-02-15T04:16:11;7.82;;;4.20;;
13445;SDS011;6795;51.232;3.764;2024-02-15T04:18:40;6.95;;;4.07;;
13445;SDS011;6795;51.232;3.764;2024-02-15T04:21:10;10.98;;;4.53;;
13445;SDS011;6795;51.232;3.764;2024-02-15T04:23:40;10.93;;;4.68;;
13445;SDS011;6795;51.232;3.764;2024-02-15T04:26:08;12.40;;;4.35;;
13445;SDS011;6795;51.232;3.764;2024-02-15T04:28:39;6.75;;;3.25;;
13445;SDS011;6795;51.232;3.764;2024-02-15T04:31:07;11.20;;;5.03;;
13445;SDS011;6795;51.232;3.764;2024-02-15T04:33:36;12.20;;;4.55;;
13445;SDS011;6795;51.232;3.764;2024-02-15T04:36:06;10.40;;;4.40;;
13445;SDS011;6795;51.232;3.764;2024-02-15T04:38:35;9.00;;;4.05;;
13445;SDS011;6795;51.232;3.764;2024-02-15T04:41:05;10.77;;;4.25;;
13445;SDS011;6795;51.232;3.764;2024-02-15T04:43:36;8.90;;;4.40;;
13445;SDS011;6795;51.232;3.764;2024-02-15T04:46:07;11.77;;;4.22;;
13445;SDS011;6795;51.232;3.764;2024-02-15T04:48:35;7.85;;;4.15;;
13445;SDS011;6795;51.232;3.764;2024-02-15T04:51:04;9.07;;;4.15;;
13445;SDS011;6795;51.232;3.764;2024-02-15T04:53:32;9.52;;;3.90;;
13445;SDS011;6795;51.232;3.764;2024-02-15T04:56:03;7.70;;;4.00;;
13445;SDS011;6795;51.232;3.764;2024-02-15T04:58:40;8.98;;;3.78;;
13445;SDS011;6795;51.232;3.764;2024-02-15T05:02:08;11.32;;;4.22;;
13445;SDS011;6795;51.232;3.764;2024-02-15T05:05:25;13.02;;;3.83;;
13445;SDS011;6795;51.232;3.764;2024-02-15T05:08:49;12.90;;;4.25;;
13445;SDS011;6795;51.232;3.764;2024-02-15T05:15:40;13.77;;;4.85;;
13445;SDS011;6795;51.232;3.764;2024-02-15T05:18:49;14.05;;;4.47;;
13445;SDS011;6795;51.232;3.764;2024-02-15T05:22:15;13.85;;;4.72;;
13445;SDS011;6795;51.232;3.764;2024-02-15T05:25:45;13.15;;;4.40;;
13445;SDS011;6795;51.232;3.764;2024-02-15T05:32:37;15.20;;;5.45;;
13445;SDS011;6795;51.232;3.764;2024-02-15T05:35:48;10.75;;;4.72;;
13445;SDS011;6795;51.232;3.764;2024-02-15T05:39:31;13.95;;;4.35;;
13445;SDS011;6795;51.232;3.764;2024-02-15T05:43:09;11.30;;;4.07;;
13445;SDS011;6795;51.232;3.764;2024-02-15T05:46:39;13.07;;;4.38;;
13445;SDS011;6795;51.232;3.764;2024-02-15T05:50:13;11.93;;;4.10;;
13445;SDS011;6795;51.232;3.764;2024-02-15T05:53:29;10.73;;;3.80;;
13445;SDS011;6795;51.232;3.764;2024-02-15T05:56:56;11.75;;;3.53;;
13445;SDS011;6795;51.232;3.764;2024-02-15T06:00:28;11.18;;;3.42;;
13445;SDS011;6795;51.232;3.764;2024-02-15T06:03:57;15.52;;;4.38;;
13445;SDS011;6795;51.232;3.764;2024-02-15T06:07:16;9.52;;;2.97;;
13445;SDS011;6795;51.232;3.764;2024-02-15T06:10:54;12.23;;;4.00;;
13445;SDS011;6795;51.232;3.764;2024-02-15T06:13:43;10.00;;;3.95;;
13445;SDS011;6795;51.232;3.764;2024-02-15T06:17:17;11.52;;;3.67;;
13445;SDS011;6795;51.232;3.764;2024-02-15T06:24:47;12.18;;;3.63;;
13445;SDS011;6795;51.232;3.764;2024-02-15T06:28:03;7.60;;;3.65;;
13445;SDS011;6795;51.232;3.764;2024-02-15T06:31:19;14.13;;;3.22;;
13445;SDS011;6795;51.232;3.764;2024-02-15T06:34:49;8.45;;;3.55;;
13445;SDS011;6795;51.232;3.764;2024-02-15T06:38:32;9.43;;;3.63;;
13445;SDS011;6795;51.232;3.764;2024-02-15T06:42:16;9.38;;;3.30;;
13445;SDS011;6795;51.232;3.764;2024-02-15T06:45:22;8.23;;;3.40;;
13445;SDS011;6795;51.232;3.764;2024-02-15T06:48:41;9.90;;;3.03;;
13445;SDS011;6795;51.232;3.764;2024-02-15T06:52:00;12.43;;;3.55;;
13445;SDS011;6795;51.232;3.764;2024-02-15T06:55:15;6.22;;;2.55;;
13445;SDS011;6795;51.232;3.764;2024-02-15T06:58:32;8.70;;;3.05;;
13445;SDS011;6795;51.232;3.764;2024-02-15T07:01:50;10.13;;;3.25;;
13445;SDS011;6795;51.232;3.764;2024-02-15T07:05:38;7.78;;;3.38;;
13445;SDS011;6795;51.232;3.764;2024-02-15T07:08:51;7.25;;;3.03;;
13445;SDS011;6795;51.232;3.764;2024-02-15T07:12:29;6.45;;;2.63;;
13445;SDS011;6795;51.232;3.764;2024-02-15T07:15:50;7.53;;;3.13;;
13445;SDS011;6795;51.232;3.764;2024-02-15T07:18:58;9.93;;;2.35;;
13445;SDS011;6795;51.232;3.764;2024-02-15T07:22:17;6.95;;;1.73;;
13445;SDS011;6795;51.232;3.764;2024-02-15T07:25:57;7.20;;;1.52;;
13445;SDS011;6795;51.232;3.764;2024-02-15T07:32:39;6.50;;;2.00;;
13445;SDS011;6795;51.232;3.764;2024-02-15T07:36:20;5.75;;;2.08;;
13445;SDS011;6795;51.232;3.764;2024-02-15T07:39:36;6.07;;;2.35;;
13445;SDS011;6795;51.232;3.764;2024-02-15T07:42:42;10.30;;;2.83;;
13445;SDS011;6795;51.232;3.764;2024-02-15T07:46:32;6.05;;;3.20;;
13445;SDS011;6795;51.232;3.764;2024-02-15T07:49:55;10.82;;;2.33;;
13445;SDS011;6795;51.232;3.764;2024-02-15T07:53:13;9.73;;;1.63;;
13445;SDS011;6795;51.232;3.764;2024-02-15T07:56:28;6.82;;;1.95;;
13445;SDS011;6795;51.232;3.764;2024-02-15T08:00:09;5.45;;;1.55;;
13445;SDS011;6795;51.232;3.764;2024-02-15T08:03:35;4.20;;;1.90;;
13445;SDS011;6795;51.232;3.764;2024-02-15T08:07:43;5.97;;;1.60;;
13445;SDS011;6795;51.232;3.764;2024-02-15T08:10:43;4.40;;;1.25;;
13445;SDS011;6795;51.232;3.764;2024-02-15T08:13:50;6.13;;;1.77;;
13445;SDS011;6795;51.232;3.764;2024-02-15T08:16:21;4.60;;;1.88;;
13445;SDS011;6795;51.232;3.764;2024-02-15T08:18:52;6.75;;;1.92;;
13445;SDS011;6795;51.232;3.764;2024-02-15T08:21:25;5.32;;;1.77;;
13445;SDS011;6795;51.232;3.764;2024-02-15T08:23:56;3.67;;;1.67;;
13445;SDS011;6795;51.232;3.764;2024-02-15T08:26:25;3.53;;;2.00;;
13445;SDS011;6795;51.232;3.764;2024-02-15T08:28:56;2.97;;;1.65;;
13445;SDS011;6795;51.232;3.764;2024-02-15T08:31:24;5.93;;;2.03;;
13445;SDS011;6795;51.232;3.764;2024-02-15T08:41:56;4.55;;;1.90;;
13445;SDS011;6795;51.232;3.764;2024-02-15T08:45:03;8.05;;;1.60;;
13445;SDS011;6795;51.232;3.764;2024-02-15T08:48:15;6.22;;;2.00;;
13445;SDS011;6795;51.232;3.764;2024-02-15T08:51:39;3.38;;;1.63;;
13445;SDS011;6795;51.232;3.764;2024-02-15T08:55:17;3.25;;;2.33;;
13445;SDS011;6795;51.232;3.764;2024-02-15T08:59:04;4.75;;;1.88;;
13445;SDS011;6795;51.232;3.764;2024-02-15T09:02:18;3.50;;;1.52;;
13445;SDS011;6795;51.232;3.764;2024-02-15T09:06:01;7.13;;;2.03;;
13445;SDS011;6795;51.232;3.764;2024-02-15T09:09:12;4.65;;;2.38;;
13445;SDS011;6795;51.232;3.764;2024-02-15T09:16:03;5.90;;;2.00;;
13445;SDS011;6795;51.232;3.764;2024-02-15T09:19:39;5.85;;;1.73;;
13445;SDS011;6795;51.232;3.764;2024-02-15T09:23:08;6.70;;;1.80;;
13445;SDS011;6795;51.232;3.764;2024-02-15T09:26:51;6.40;;;1.85;;
13445;SDS011;6795;51.232;3.764;2024-02-15T09:38:13;6.13;;;1.98;;
13445;SDS011;6795;51.232;3.764;2024-02-15T09:41:25;2.22;;;1.55;;
13445;SDS011;6795;51.232;3.764;2024-02-15T09:44:48;6.20;;;1.70;;
13445;SDS011;6795;51.232;3.764;2024-02-15T09:51:40;5.25;;;1.20;;
13445;SDS011;6795;51.232;3.764;2024-02-15T09:54:42;4.68;;;1.25;;
13445;SDS011;6795;51.232;3.764;2024-02-15T09:58:13;3.42;;;1.33;;
13445;SDS011;6795;51.232;3.764;2024-02-15T10:01:58;7.53;;;1.45;;
13445;SDS011;6795;51.232;3.764;2024-02-15T10:05:28;4.82;;;1.42;;
13445;SDS011;6795;51.232;3.764;2024-02-15T10:08:48;6.68;;;1.58;;
13445;SDS011;6795;51.232;3.764;2024-02-15T10:11:56;9.95;;;1.17;;
13445;SDS011;6795;51.232;3.764;2024-02-15T10:15:07;4.65;;;1.23;;
13445;SDS011;6795;51.232;3.764;2024-02-15T10:18:57;6.25;;;1.42;;
13445;SDS011;6795;51.232;3.764;2024-02-15T10:22:25;3.88;;;1.10;;
13445;SDS011;6795;51.232;3.764;2024-02-15T10:33:36;6.28;;;1.25;;
13445;SDS011;6795;51.232;3.764;2024-02-15T10:37:14;7.50;;;1.77;;
13445;SDS011;6795;51.232;3.764;2024-02-15T10:40:44;5.55;;;1.40;;
13445;SDS011;6795;51.232;3.764;2024-02-15T10:44:13;4.03;;;1.05;;
13445;SDS011;6795;51.232;3.764;2024-02-15T10:47:29;3.00;;;0.80;;
13445;SDS011;6795;51.232;3.764;2024-02-15T10:50:50;4.15;;;1.48;;
13445;SDS011;6795;51.232;3.764;2024-02-15T10:54:20;6.32;;;1.27;;
13445;SDS011;6795;51.232;3.764;2024-02-15T10:58:00;3.47;;;0.80;;
13445;SDS011;6795;51.232;3.764;2024-02-15T11:01:12;1.35;;;0.70;;
13445;SDS011;6795;51.232;3.764;2024-02-15T11:04:24;2.78;;;0.50;;
13445;SDS011;6795;51.232;3.764;2024-02-15T11:07:56;3.22;;;0.60;;
13445;SDS011;6795;51.232;3.764;2024-02-15T11:11:29;4.97;;;0.70;;
13445;SDS011;6795;51.232;3.764;2024-02-15T11:22:04;2.90;;;0.70;;
13445;SDS011;6795;51.232;3.764;2024-02-15T11:37:03;2.22;;;0.98;;
13445;SDS011;6795;51.232;3.764;2024-02-15T11:47:31;2.53;;;0.63;;
13445;SDS011;6795;51.232;3.764;2024-02-15T11:50:44;3.30;;;0.63;;
13445;SDS011;6795;51.232;3.764;2024-02-15T11:54:36;4.03;;;0.60;;
13445;SDS011;6795;51.232;3.764;2024-02-15T11:57:38;2.72;;;0.50;;
13445;SDS011;6795;51.232;3.764;2024-02-15T12:05:06;5.30;;;0.75;;
13445;SDS011;6795;51.232;3.764;2024-02-15T12:09:02;3.33;;;0.50;;
13445;SDS011;6795;51.232;3.764;2024-02-15T12:12:01;3.25;;;0.80;;
13445;SDS011;6795;51.232;3.764;2024-02-15T12:19:27;5.75;;;0.60;;
13445;SDS011;6795;51.232;3.764;2024-02-15T12:23:02;1.13;;;0.45;;
13445;SDS011;6795;51.232;3.764;2024-02-15T12:26:26;4.53;;;0.80;;
13445;SDS011;6795;51.232;3.764;2024-02-15T12:29:38;4.72;;;0.70;;
13445;SDS011;6795;51.232;3.764;2024-02-15T12:33:19;2.22;;;0.50;;
13445;SDS011;6795;51.232;3.764;2024-02-15T12:36:22;0.60;;;0.60;;
13445;SDS011;6795;51.232;3.764;2024-02-15T12:39:38;2.90;;;0.50;;
13445;SDS011;6795;51.232;3.764;2024-02-15T12:42:55;2.60;;;0.50;;
13445;SDS011;6795;51.232;3.764;2024-02-15T12:46:20;3.00;;;0.70;;
13445;SDS011;6795;51.232;3.764;2024-02-15T12:57:32;4.60;;;0.85;;
13445;SDS011;6795;51.232;3.764;2024-02-15T13:00:55;3.20;;;0.77;;
13445;SDS011;6795;51.232;3.764;2024-02-15T13:04:30;4.97;;;1.17;;
13445;SDS011;6795;51.232;3.764;2024-02-15T13:08:00;6.35;;;1.70;;
13445;SDS011;6795;51.232;3.764;2024-02-15T13:14:52;5.57;;;1.98;;
13445;SDS011;6795;51.232;3.764;2024-02-15T13:18:41;8.40;;;3.20;;
13445;SDS011;6795;51.232;3.764;2024-02-15T13:22:15;6.57;;;3.97;;
13445;SDS011;6795;51.232;3.764;2024-02-15T13:25:32;8.93;;;4.00;;
13445;SDS011;6795;51.232;3.764;2024-02-15T13:28:56;7.32;;;4.05;;
13445;SDS011;6795;51.232;3.764;2024-02-15T13:32:28;8.98;;;4.38;;
13445;SDS011;6795;51.232;3.764;2024-02-15T13:35:59;12.98;;;3.53;;
13445;SDS011;6795;51.232;3.764;2024-02-15T13:40:00;7.90;;;3.97;;
13445;SDS011;6795;51.232;3.764;2024-02-15T13:43:40;12.15;;;4.68;;
13445;SDS011;6795;51.232;3.764;2024-02-15T13:46:46;10.73;;;5.20;;
13445;SDS011;6795;51.232;3.764;2024-02-15T13:57:50;6.60;;;2.83;;
13445;SDS011;6795;51.232;3.764;2024-02-15T14:01:08;3.78;;;2.00;;
13445;SDS011;6795;51.232;3.764;2024-02-15T14:04:45;4.53;;;1.45;;
13445;SDS011;6795;51.232;3.764;2024-02-15T14:07:52;3.45;;;1.52;;
13445;SDS011;6795;51.232;3.764;2024-02-15T14:11:19;9.27;;;2.17;;
13445;SDS011;6795;51.232;3.764;2024-02-15T14:14:56;5.45;;;2.00;;
13445;SDS011;6795;51.232;3.764;2024-02-15T14:18:27;2.67;;;1.17;;
13445;SDS011;6795;51.232;3.764;2024-02-15T14:21:35;3.75;;;1.02;;
13445;SDS011;6795;51.232;3.764;2024-02-15T14:25:33;2.72;;;1.08;;
13445;SDS011;6795;51.232;3.764;2024-02-15T14:33:10;5.10;;;1.95;;
13445;SDS011;6795;51.232;3.764;2024-02-15T14:36:30;8.48;;;3.40;;
13445;SDS011;6795;51.232;3.764;2024-02-15T14:40:17;6.18;;;2.70;;
13445;SDS011;6795;51.232;3.764;2024-02-15T14:43:47;4.72;;;2.03;;
13445;SDS011;6795;51.232;3.764;2024-02-15T14:47:02;5.75;;;3.10;;
13445;SDS011;6795;51.232;3.764;2024-02-15T14:50:25;8.13;;;2.92;;
13445;SDS011;6795;51.232;3.764;2024-02-15T14:53:44;5.25;;;2.45;;
13445;SDS011;6795;51.232;3.764;2024-02-15T14:56:55;8.07;;;2.72;;
13445;SDS011;6795;51.232;3.764;2024-02-15T15:00:07;4.05;;;1.60;;
13445;SDS011;6795;51.232;3.764;2024-02-15T15:03:36;11.30;;;2.45;;
13445;SDS011;6795;51.232;3.764;2024-02-15T15:11:04;7.95;;;3.17;;
13445;SDS011;6795;51.232;3.764;2024-02-15T15:14:19;7.18;;;2.40;;
13445;SDS011;6795;51.232;3.764;2024-02-15T15:17:26;4.70;;;1.52;;
13445;SDS011;6795;51.232;3.764;2024-02-15T15:20:23;5.22;;;1.17;;
13445;SDS011;6795;51.232;3.764;2024-02-15T15:27:22;5.30;;;1.10;;
13445;SDS011;6795;51.232;3.764;2024-02-15T15:30:48;1.88;;;0.70;;
13445;SDS011;6795;51.232;3.764;2024-02-15T15:34:15;2.40;;;0.65;;
13445;SDS011;6795;51.232;3.764;2024-02-15T15:37:36;3.30;;;0.98;;
13445;SDS011;6795;51.232;3.764;2024-02-15T15:40:39;3.03;;;1.27;;
13445;SDS011;6795;51.232;3.764;2024-02-15T15:44:30;6.90;;;1.52;;
13445;SDS011;6795;51.232;3.764;2024-02-15T15:47:34;8.10;;;2.30;;
13445;SDS011;6795;51.232;3.764;2024-02-15T15:51:06;6.70;;;2.30;;
13445;SDS011;6795;51.232;3.764;2024-02-15T15:54:28;5.07;;;2.13;;
13445;SDS011;6795;51.232;3.764;2024-02-15T16:05:58;3.70;;;1.65;;
13445;SDS011;6795;51.232;3.764;2024-02-15T16:09:35;8.05;;;3.20;;
13445;SDS011;6795;51.232;3.764;2024-02-15T16:12:46;2.83;;;1.73;;
13445;SDS011;6795;51.232;3.764;2024-02-15T16:15:53;5.43;;;1.67;;
13445;SDS011;6795;51.232;3.764;2024-02-15T16:19:15;3.03;;;1.02;;
13445;SDS011;6795;51.232;3.764;2024-02-15T16:23:00;3.17;;;1.42;;
13445;SDS011;6795;51.232;3.764;2024-02-15T16:26:06;3.17;;;0.90;;
13445;SDS011;6795;51.232;3.764;2024-02-15T16:29:41;3.33;;;0.65;;
13445;SDS011;6795;51.232;3.764;2024-02-15T16:33:17;3.45;;;0.70;;
13445;SDS011;6795;51.232;3.764;2024-02-15T16:40:00;4.38;;;1.30;;
13445;SDS011;6795;51.232;3.764;2024-02-15T16:43:24;5.53;;;1.80;;
13445;SDS011;6795;51.232;3.764;2024-02-15T16:46:38;6.35;;;1.73;;
13445;SDS011;6795;51.232;3.764;2024-02-15T16:54:08;8.18;;;3.35;;
13445;SDS011;6795;51.232;3.764;2024-02-15T16:58:03;16.98;;;3.58;;
13445;SDS011;6795;51.232;3.764;2024-02-15T17:01:22;7.70;;;1.50;;
13445;SDS011;6795;51.232;3.764;2024-02-15T17:12:41;2.42;;;0.88;;
13445;SDS011;6795;51.232;3.764;2024-02-15T17:16:38;3.13;;;0.80;;
13445;SDS011;6795;51.232;3.764;2024-02-15T17:20:01;1.73;;;1.15;;
13445;SDS011;6795;51.232;3.764;2024-02-15T17:23:16;2.70;;;1.20;;
13445;SDS011;6795;51.232;3.764;2024-02-15T17:26:43;1.92;;;0.55;;
13445;SDS011;6795;51.232;3.764;2024-02-15T17:30:01;2.78;;;0.90;;
13445;SDS011;6795;51.232;3.764;2024-02-15T17:33:20;2.63;;;1.02;;
13445;SDS011;6795;51.232;3.764;2024-02-15T17:36:39;2.63;;;0.75;;
13445;SDS011;6795;51.232;3.764;2024-02-15T17:39:44;6.40;;;1.20;;
13445;SDS011;6795;51.232;3.764;2024-02-15T17:45:40;9.15;;;1.08;;
13445;SDS011;6795;51.232;3.764;2024-02-15T17:51:03;4.38;;;0.95;;
13445;SDS011;6795;51.232;3.764;2024-02-15T17:54:34;5.22;;;1.45;;
13445;SDS011;6795;51.232;3.764;2024-02-15T17:57:48;2.83;;;1.02;;
13445;SDS011;6795;51.232;3.764;2024-02-15T18:01:04;4.00;;;0.80;;
13445;SDS011;6795;51.232;3.764;2024-02-15T18:04:26;4.00;;;1.05;;
13445;SDS011;6795;51.232;3.764;2024-02-15T18:07:54;1.38;;;0.75;;
13445;SDS011;6795;51.232;3.764;2024-02-15T18:11:47;3.97;;;1.85;;
13445;SDS011;6795;51.232;3.764;2024-02-15T18:15:30;3.30;;;0.93;;
13445;SDS011;6795;51.232;3.764;2024-02-15T18:18:40;2.28;;;0.93;;
13445;SDS011;6795;51.232;3.764;2024-02-15T18:26:05;3.20;;;1.48;;
13445;SDS011;6795;51.232;3.764;2024-02-15T18:29:50;4.43;;;1.70;;
13445;SDS011;6795;51.232;3.764;2024-02-15T18:33:04;6.35;;;1.42;;
13445;SDS011;6795;51.232;3.764;2024-02-15T18:36:42;8.05;;;1.67;;
13445;SDS011;6795;51.232;3.764;2024-02-15T18:40:11;4.97;;;1.38;;
13445;SDS011;6795;51.232;3.764;2024-02-15T18:43:38;9.57;;;2.72;;
13445;SDS011;6795;51.232;3.764;2024-02-15T18:47:16;8.10;;;2.50;;
13445;SDS011;6795;51.232;3.764;2024-02-15T18:50:45;6.95;;;1.63;;
13445;SDS011;6795;51.232;3.764;2024-02-15T18:53:52;6.70;;;1.60;;
13445;SDS011;6795;51.232;3.764;2024-02-15T19:01:06;2.00;;;1.33;;
13445;SDS011;6795;51.232;3.764;2024-02-15T19:04:51;6.65;;;1.73;;
13445;SDS011;6795;51.232;3.764;2024-02-15T19:08:25;3.33;;;1.23;;
13445;SDS011;6795;51.232;3.764;2024-02-15T19:11:50;5.00;;;1.52;;
13445;SDS011;6795;51.232;3.764;2024-02-15T19:18:55;5.60;;;1.35;;
13445;SDS011;6795;51.232;3.764;2024-02-15T19:22:14;5.45;;;1.42;;
13445;SDS011;6795;51.232;3.764;2024-02-15T19:25:37;4.53;;;1.52;;
13445;SDS011;6795;51.232;3.764;2024-02-15T19:28:53;4.88;;;1.33;;
13445;SDS011;6795;51.232;3.764;2024-02-15T19:32:17;2.83;;;1.33;;
13445;SDS011;6795;51.232;3.764;2024-02-15T19:35:45;1.90;;;1.45;;
13445;SDS011;6795;51.232;3.764;2024-02-15T19:42:29;2.78;;;1.70;;
13445;SDS011;6795;51.232;3.764;2024-02-15T19:45:39;2.28;;;1.48;;
13445;SDS011;6795;51.232;3.764;2024-02-15T19:52:24;4.72;;;1.67;;
13445;SDS011;6795;51.232;3.764;2024-02-15T19:55:55;2.92;;;1.35;;
13445;SDS011;6795;51.232;3.764;2024-02-15T19:59:06;3.13;;;1.02;;
13445;SDS011;6795;51.232;3.764;2024-02-15T20:02:29;4.20;;;1.98;;
13445;SDS011;6795;51.232;3.764;2024-02-15T20:06:02;2.15;;;1.10;;
13445;SDS011;6795;51.232;3.764;2024-02-15T20:09:19;3.90;;;1.35;;
13445;SDS011;6795;51.232;3.764;2024-02-15T20:12:42;6.40;;;1.42;;
13445;SDS011;6795;51.232;3.764;2024-02-15T20:15:46;2.53;;;1.13;;
13445;SDS011;6795;51.232;3.764;2024-02-15T20:19:38;1.73;;;1.27;;
13445;SDS011;6795;51.232;3.764;2024-02-15T20:34:23;6.15;;;1.02;;
13445;SDS011;6795;51.232;3.764;2024-02-15T20:37:57;4.07;;;1.30;;
13445;SDS011;6795;51.232;3.764;2024-02-15T20:40:57;4.47;;;1.30;;
13445;SDS011;6795;51.232;3.764;2024-02-15T20:47:49;1.42;;;0.70;;
13445;SDS011;6795;51.232;3.764;2024-02-15T20:51:32;1.48;;;1.10;;
13445;SDS011;6795;51.232;3.764;2024-02-15T20:58:10;1.85;;;1.25;;
13445;SDS011;6795;51.232;3.764;2024-02-15T21:02:00;1.67;;;1.10;;
13445;SDS011;6795;51.232;3.764;2024-02-15T21:05:20;2.03;;;1.23;;
13445;SDS011;6795;51.232;3.764;2024-02-15T21:08:25;1.45;;;1.35;;
13445;SDS011;6795;51.232;3.764;2024-02-15T21:15:16;1.40;;;1.30;;
13445;SDS011;6795;51.232;3.764;2024-02-15T21:26:27;4.13;;;1.48;;
13445;SDS011;6795;51.232;3.764;2024-02-15T21:29:50;2.38;;;1.30;;
13445;SDS011;6795;51.232;3.764;2024-02-15T21:33:10;4.55;;;1.92;;
13445;SDS011;6795;51.232;3.764;2024-02-15T21:36:14;1.67;;;1.40;;
13445;SDS011;6795;51.232;3.764;2024-02-15T21:39:38;1.63;;;1.48;;
13445;SDS011;6795;51.232;3.764;2024-02-15T21:43:05;2.97;;;2.05;;
13445;SDS011;6795;51.232;3.764;2024-02-15T21:46:23;4.28;;;1.35;;
13445;SDS011;6795;51.232;3.764;2024-02-15T21:56:51;3.67;;;1.85;;
13445;SDS011;6795;51.232;3.764;2024-02-15T22:00:05;2.42;;;2.08;;
13445;SDS011;6795;51.232;3.764;2024-02-15T22:03:52;2.28;;;1.73;;
13445;SDS011;6795;51.232;3.764;2024-02-15T22:07:04;3.13;;;1.35;;
13445;SDS011;6795;51.232;3.764;2024-02-15T22:18:12;3.25;;;1.65;;
13445;SDS011;6795;51.232;3.764;2024-02-15T22:25:15;2.38;;;1.70;;
13445;SDS011;6795;51.232;3.764;2024-02-15T22:28:27;2.42;;;1.58;;
13445;SDS011;6795;51.232;3.764;2024-02-15T22:32:13;4.25;;;1.75;;
13445;SDS011;6795;51.232;3.764;2024-02-15T22:35:43;3.17;;;1.92;;
13445;SDS011;6795;51.232;3.764;2024-02-15T22:39:41;3.25;;;2.08;;
13445;SDS011;6795;51.232;3.764;2024-02-15T22:46:45;3.75;;;2.17;;
13445;SDS011;6795;51.232;3.764;2024-02-15T22:50:11;4.57;;;2.42;;
13445;SDS011;6795;51.232;3.764;2024-02-15T22:57:50;2.00;;;1.55;;
13445;SDS011;6795;51.232;3.764;2024-02-15T23:01:22;2.00;;;1.48;;
13445;SDS011;6795;51.232;3.764;2024-02-15T23:04:53;3.67;;;1.55;;
13445;SDS011;6795;51.232;3.764;2024-02-15T23:08:06;1.75;;;1.65;;
13445;SDS011;6795;51.232;3.764;2024-02-15T23:15:13;3.83;;;1.95;;
13445;SDS011;6795;51.232;3.764;2024-02-15T23:19:12;6.03;;;1.75;;
13445;SDS011;6795;51.232;3.764;2024-02-15T23:25:19;4.88;;;1.70;;
13445;SDS011;6795;51.232;3.764;2024-02-15T23:32:30;5.38;;;2.28;;